Terminal Aerodrome Forecast
Issued by NWS

Home | Current Version | Previous Version | Graphics & Text | Print | Product List | Glossary On
Versions: 1 2 3 4 5 6 7 8 9 10 11 12 13 14
000
FTUS43 KMPX 162300
TAFAXN
TAF
KAXN 162322Z 1700/1724 18003KT P6SM BKN060
     FM171200 25003KT P6SM SKC
     FM171700 36007KT P6SM SKC=

USA.gov is the U.S. government's official web portal to all federal, state and local government web resources and services.